createdAt,value
2017-04-02T00:00:10.215Z,10.3
2017-04-02T00:05:03.070Z,10.5
2017-04-02T00:10:02.817Z,10.3
2017-04-02T00:15:02.653Z,10.3
2017-04-02T00:20:03.392Z,10.5
2017-04-02T00:25:03.287Z,10.5
2017-04-02T00:30:02.942Z,10.3
2017-04-02T00:35:02.725Z,10.5
2017-04-02T00:40:02.537Z,10.5
2017-04-02T00:45:03.379Z,10.3
2017-04-02T00:50:03.216Z,10.3
2017-04-02T00:55:03.017Z,10.1
2017-04-02T01:00:02.744Z,10.1
2017-04-02T01:05:02.591Z,10.1
2017-04-02T01:10:02.697Z,10.3
2017-04-02T01:15:10.348Z,10.3
2017-04-02T01:20:02.936Z,10.1
2017-04-02T01:25:02.730Z,10.3
2017-04-02T01:30:03.441Z,10.3
2017-04-02T01:35:03.157Z,10.3
2017-04-02T01:40:02.852Z,10.3
2017-04-02T01:45:02.612Z,10.3
2017-04-02T01:50:03.322Z,10.3
2017-04-02T01:55:03.017Z,10.5
2017-04-02T02:00:02.756Z,10.5
2017-04-02T02:05:02.498Z,10.5
2017-04-02T02:10:03.468Z,10.5
2017-04-02T02:15:03.065Z,10.5
2017-04-02T02:20:02.760Z,10.5
2017-04-02T02:25:02.457Z,10.3
2017-04-02T02:30:03.386Z,10.3
2017-04-02T02:35:03.125Z,10.5
2017-04-02T02:40:02.866Z,10.3
2017-04-02T02:45:02.658Z,10.3
2017-04-02T02:50:03.377Z,10.3
2017-04-02T02:55:03.308Z,10.3
2017-04-02T03:00:03.207Z,10.3
2017-04-02T03:05:02.992Z,10.3
2017-04-02T03:10:02.935Z,10.3
2017-04-02T03:15:02.528Z,10.3
2017-04-02T03:20:03.186Z,10.3
2017-04-02T03:25:02.843Z,10.3
2017-04-02T03:30:02.492Z,10.3
2017-04-02T03:35:03.390Z,10.1
2017-04-02T03:40:03.087Z,10.1
2017-04-02T03:45:02.837Z,10.1
2017-04-02T03:50:02.595Z,10.1
2017-04-02T03:55:03.509Z,10.1
2017-04-02T04:00:03.340Z,10.3
2017-04-02T04:05:02.966Z,10.1
2017-04-02T04:10:02.819Z,10.1
2017-04-02T04:15:02.615Z,10.1
2017-04-02T04:20:03.547Z,10.1
2017-04-02T04:25:03.560Z,10.1
2017-04-02T04:30:03.211Z,10.1
2017-04-02T04:35:02.882Z,10.0
2017-04-02T04:40:02.563Z,9.8
2017-04-02T04:45:03.231Z,9.6
2017-04-02T04:50:03.469Z,9.8
2017-04-02T04:55:03.214Z,9.6
2017-04-02T05:00:02.993Z,9.5
2017-04-02T05:05:02.756Z,9.6
2017-04-02T05:10:02.596Z,9.6
2017-04-02T05:15:03.434Z,9.8
2017-04-02T05:20:03.223Z,9.6
2017-04-02T05:25:02.877Z,9.6
2017-04-02T05:30:02.657Z,9.6
2017-04-02T05:35:03.291Z,9.6
2017-04-02T05:40:03.143Z,9.5
2017-04-02T05:45:02.704Z,9.5
2017-04-02T05:50:03.404Z,9.6
2017-04-02T05:55:03.026Z,9.6
2017-04-02T06:00:02.775Z,9.6
2017-04-02T06:05:02.416Z,9.6
2017-04-02T06:10:03.149Z,9.6
2017-04-02T06:15:02.918Z,9.6
2017-04-02T06:20:02.882Z,9.5
2017-04-02T06:25:02.642Z,9.6
2017-04-02T06:30:03.453Z,9.8
2017-04-02T06:35:03.194Z,10.0
2017-04-02T06:40:02.888Z,9.6
2017-04-02T06:45:02.607Z,9.6
2017-04-02T06:50:03.297Z,9.5
2017-04-02T06:55:02.887Z,9.6
2017-04-02T07:00:02.748Z,9.6
2017-04-02T07:05:03.351Z,9.5
2017-04-02T07:10:03.018Z,9.8
2017-04-02T07:15:03.464Z,10.0
2017-04-02T07:20:03.192Z,9.6
2017-04-02T07:25:02.855Z,10.0
2017-04-02T07:30:02.601Z,10.1
2017-04-02T07:35:03.249Z,10.5
2017-04-02T07:40:02.969Z,10.3
2017-04-02T07:45:02.654Z,10.1
2017-04-02T07:50:03.415Z,10.8
2017-04-02T07:55:03.245Z,11.1
2017-04-02T08:00:03.066Z,11.0
2017-04-02T08:05:02.919Z,11.0
2017-04-02T08:10:02.669Z,11.1
2017-04-02T08:15:02.471Z,11.3
2017-04-02T08:20:03.243Z,11.6
2017-04-02T08:25:02.955Z,11.6
2017-04-02T08:30:02.682Z,12.1
2017-04-02T08:35:02.562Z,12.0
2017-04-02T08:40:03.291Z,12.1
2017-04-02T08:45:02.856Z,12.5
2017-04-02T08:50:02.540Z,12.5
2017-04-02T08:55:03.306Z,12.3
2017-04-02T09:00:02.983Z,12.1
2017-04-02T09:05:02.755Z,12.6
2017-04-02T09:10:02.796Z,13.8
2017-04-02T09:15:02.620Z,13.1
2017-04-02T09:20:03.270Z,13.1
2017-04-02T09:25:03.347Z,14.1
2017-04-02T09:30:03.195Z,13.6
2017-04-02T09:35:03.049Z,14.5
2017-04-02T09:40:02.626Z,14.5
2017-04-02T09:45:02.648Z,14.5
2017-04-02T09:50:02.473Z,15.8
2017-04-02T09:55:02.614Z,14.3
2017-04-02T10:00:03.395Z,14.3
2017-04-02T10:05:03.168Z,15.1
2017-04-02T10:10:02.950Z,15.8
2017-04-02T10:15:02.615Z,16.6
2017-04-02T10:20:03.504Z,16.6
2017-04-02T10:25:03.171Z,17.1
2017-04-02T10:30:03.002Z,16.2
2017-04-02T10:35:02.752Z,16.7
2017-04-02T10:40:02.643Z,17.0
2017-04-02T10:45:02.594Z,15.8
2017-04-02T10:50:03.105Z,16.7
2017-04-02T10:55:03.441Z,16.7
2017-04-02T11:00:02.971Z,17.0
2017-04-02T11:05:02.729Z,17.1
2017-04-02T11:10:02.659Z,16.6
2017-04-02T11:15:03.381Z,18.2
2017-04-02T11:20:03.094Z,18.1
2017-04-02T11:25:03.086Z,18.1
2017-04-02T11:30:02.937Z,17.7
2017-04-02T11:35:02.719Z,17.8
2017-04-02T11:40:02.612Z,18.8
2017-04-02T11:45:03.332Z,18.1
2017-04-02T11:50:03.089Z,18.8
2017-04-02T11:55:02.815Z,20.1
2017-04-02T12:00:02.505Z,19.2
2017-04-02T12:05:03.276Z,19.7
2017-04-02T12:10:02.939Z,19.5
2017-04-02T12:15:02.716Z,19.2
2017-04-02T12:20:03.427Z,19.2
2017-04-02T12:25:02.956Z,20.0
2017-04-02T12:30:02.634Z,19.7
2017-04-02T12:35:03.391Z,20.3
2017-04-02T12:40:03.146Z,20.1
2017-04-02T12:45:02.895Z,19.7
2017-04-02T12:50:02.516Z,19.7
2017-04-02T12:55:03.161Z,19.7
2017-04-02T13:00:03.054Z,19.7
2017-04-02T13:05:02.767Z,19.7
2017-04-02T13:10:02.660Z,20.2
2017-04-02T13:15:03.435Z,20.1
2017-04-02T13:20:03.136Z,19.7
2017-04-02T13:25:02.797Z,20.0
2017-04-02T13:30:02.430Z,20.2
2017-04-02T13:35:03.063Z,21.0
2017-04-02T13:40:02.843Z,20.2
2017-04-02T13:45:02.715Z,19.3
2017-04-02T13:50:02.574Z,20.1
2017-04-02T13:55:03.280Z,19.2
2017-04-02T14:00:02.574Z,20.2
2017-04-02T14:05:02.601Z,20.8
2017-04-02T14:10:02.522Z,21.2
2017-04-02T14:15:02.776Z,20.8
2017-04-02T14:20:03.428Z,20.7
2017-04-02T14:25:03.237Z,21.2
2017-04-02T14:30:02.702Z,21.6
2017-04-02T14:35:03.091Z,20.6
2017-04-02T14:40:03.058Z,21.0
2017-04-02T14:45:02.660Z,20.7
2017-04-02T14:50:02.795Z,20.7
2017-04-02T14:55:02.910Z,21.2
2017-04-02T15:00:03.313Z,20.6
2017-04-02T15:05:03.242Z,20.7
2017-04-02T15:10:03.171Z,21.2
2017-04-02T15:15:02.704Z,21.8
2017-04-02T15:20:02.549Z,20.2
2017-04-02T15:25:02.617Z,21.5
2017-04-02T15:30:02.605Z,20.1
2017-04-02T15:35:03.394Z,18.6
2017-04-02T15:40:03.194Z,18.1
2017-04-02T15:45:03.301Z,18.2
2017-04-02T15:50:02.452Z,17.2
2017-04-02T15:55:03.292Z,17.0
2017-04-02T16:00:03.129Z,17.2
2017-04-02T16:05:02.912Z,18.8
2017-04-02T16:10:02.644Z,18.8
2017-04-02T16:15:02.584Z,19.2
2017-04-02T16:20:03.399Z,18.8
2017-04-02T16:25:03.265Z,19.1
2017-04-02T16:30:02.997Z,19.1
2017-04-02T16:35:02.690Z,18.5
2017-04-02T16:40:03.403Z,18.2
2017-04-02T16:45:02.995Z,18.6
2017-04-02T16:50:02.614Z,17.2
2017-04-02T16:55:03.360Z,16.7
2017-04-02T17:00:03.052Z,16.3
2017-04-02T17:05:02.694Z,16.0
2017-04-02T17:10:03.332Z,15.6
2017-04-02T17:15:02.989Z,16.2
2017-04-02T17:20:02.759Z,15.6
2017-04-02T17:25:03.493Z,15.1
2017-04-02T17:30:03.197Z,14.8
2017-04-02T17:35:02.841Z,14.6
2017-04-02T17:40:02.576Z,14.3
2017-04-02T17:45:03.249Z,14.3
2017-04-02T17:50:02.891Z,14.1
2017-04-02T17:55:02.513Z,14.3
2017-04-02T18:00:03.273Z,14.3
2017-04-02T18:05:02.885Z,14.3
2017-04-02T18:10:02.533Z,14.1
2017-04-02T18:15:03.272Z,13.8
2017-04-02T18:20:03.217Z,13.6
2017-04-02T18:25:03.015Z,13.3
2017-04-02T18:30:02.807Z,13.1
2017-04-02T18:35:02.561Z,13.1
2017-04-02T18:40:03.408Z,12.8
2017-04-02T18:45:03.175Z,12.8
2017-04-02T18:50:02.849Z,12.6
2017-04-02T18:55:02.745Z,12.5
2017-04-02T19:00:02.717Z,12.1
2017-04-02T19:05:02.473Z,12.1
2017-04-02T19:10:03.160Z,12.1
2017-04-02T19:15:02.788Z,11.8
2017-04-02T19:20:02.655Z,11.8
2017-04-02T19:25:02.358Z,11.6
2017-04-02T19:30:03.052Z,11.6
2017-04-02T19:35:02.651Z,11.6
2017-04-02T19:40:02.537Z,11.6
2017-04-02T19:45:03.220Z,11.3
2017-04-02T19:50:03.010Z,11.3
2017-04-02T19:55:02.640Z,11.3
2017-04-02T20:00:03.296Z,11.1
2017-04-02T20:05:03.114Z,11.1
2017-04-02T20:10:02.840Z,11.0
2017-04-02T20:15:02.558Z,10.8
2017-04-02T20:20:03.263Z,10.8
2017-04-02T20:25:02.906Z,10.8
2017-04-02T20:30:02.638Z,10.8
2017-04-02T20:35:02.476Z,10.6
2017-04-02T20:40:03.276Z,10.5
2017-04-02T20:45:02.868Z,10.5
2017-04-02T20:50:02.646Z,10.5
2017-04-02T20:55:03.368Z,10.1
2017-04-02T21:00:03.129Z,10.1
2017-04-02T21:05:02.792Z,10.0
2017-04-02T21:10:02.430Z,10.0
2017-04-02T21:15:03.210Z,9.8
2017-04-02T21:20:03.029Z,9.8
2017-04-02T21:25:02.821Z,9.8
2017-04-02T21:30:02.550Z,9.8
2017-04-02T21:35:03.263Z,9.6
2017-04-02T21:40:02.963Z,9.5
2017-04-02T21:45:02.604Z,9.3
2017-04-02T21:50:03.197Z,9.3
2017-04-02T21:55:02.977Z,9.1
2017-04-02T22:00:02.572Z,9.1
2017-04-02T22:05:03.172Z,9.0
2017-04-02T22:10:02.911Z,8.8
2017-04-02T22:15:02.733Z,8.6
2017-04-02T22:20:02.426Z,8.6
2017-04-02T22:25:03.200Z,8.3
2017-04-02T22:30:03.073Z,8.1
2017-04-02T22:35:02.699Z,8.3
2017-04-02T22:40:02.482Z,8.5
2017-04-02T22:45:03.172Z,8.5
2017-04-02T22:50:02.956Z,8.6
2017-04-02T22:55:02.555Z,8.6
2017-04-02T23:00:03.376Z,8.5
2017-04-02T23:05:02.642Z,8.5
2017-04-02T23:10:03.390Z,8.1
2017-04-02T23:15:03.144Z,8.1
2017-04-02T23:20:02.874Z,8.1
2017-04-02T23:25:02.644Z,8.3
2017-04-02T23:30:03.377Z,8.5
2017-04-02T23:35:03.189Z,8.3
2017-04-02T23:40:02.853Z,8.5
2017-04-02T23:45:02.790Z,8.6
2017-04-02T23:50:02.486Z,8.6
2017-04-02T23:55:03.237Z,8.5
